TAF and METAR

METAR for Urgench International Airport

UTNU 171900Z 09008KT 7000 OVC015 10/05 Q1000 R31/CLRD70 NOSIG
Report created 17. jan 20:00
wind 8 knots from E (090°) visibility 7000 meters overcast at 1500 feet Temperature 10° with dewpoint at 5° (Humidity 71.08%) Pressure 1000 hPa
No TAF available for Urgench International Airport